KLSF/LSF METAR and TAF weather

Enter ICAO airport designator
Station Type Date Time Source
KLSF METAR 2019/12/08 14:06 UTC NOAA

KLSF 081406Z AUTO 09009KT 10SM BKN038 OVC055 12/08 A3028 RMK AO2 SLPNO


Station Type Date Time Source
KLSF Decoded METAR 2019/12/08 14:06 UTC NOAA

Fort Benning, GA, United States (KLSF) 32-20N 084-50W 130M
Dec 08, 2019 - 09:06 AM EST / 2019.12.08 1406 UTC
Wind: from the E (090 degrees) at 10 MPH (9 KT):0
Visibility: 10 mile(s):0
Sky conditions: overcast
Temperature: 53 F (12 C)
Dew Point: 46 F (8 C)
Relative Humidity: 76%
Pressure (altimeter): 30.28 in. Hg (1025 hPa)
ob: KLSF 081406Z AUTO 09009KT 10SM BKN038 OVC055 12/08 A3028 RMK AO2 SLPNO
cycle: 14

Station Type Date Time Source
KLSF TAF 2019/12/08 09:03 UTC NOAA

TAF KLSF 080900Z 0809/0915 09009KT 9999 BKN040 QNH3020INS
BECMG 0822/0823 09010G15KT 9999 SCT010 BKN020 QNH3013INS
BECMG 0900/0901 VRB06KT 9999 BKN010 QNH3004INS TX16/0820Z TN08/0812Z

Example: see airport list